createdAt,value
2022-12-05T00:01:29.520Z,7.77
2022-12-05T00:04:15.966Z,6.40
2022-12-05T00:09:54.556Z,5.43
2022-12-05T00:12:41.030Z,7.77
2022-12-05T00:15:27.331Z,6.53
2022-12-05T00:18:14.019Z,6.17
2022-12-05T00:21:00.451Z,7.63
2022-12-05T00:23:46.693Z,7.13
2022-12-05T00:26:33.589Z,6.13
2022-12-05T00:29:19.757Z,6.33
2022-12-05T00:32:06.104Z,7.00
2022-12-05T00:34:52.658Z,5.90
2022-12-05T00:37:38.960Z,8.60
2022-12-05T00:40:25.267Z,6.67
2022-12-05T00:43:11.618Z,8.97
2022-12-05T00:46:02.560Z,6.70
2022-12-05T00:48:50.050Z,7.00
2022-12-05T00:51:40.943Z,5.67
2022-12-05T00:54:27.550Z,6.50
2022-12-05T00:57:13.997Z,6.83
2022-12-05T01:00:00.226Z,7.43
2022-12-05T01:02:47.028Z,5.83
2022-12-05T01:05:34.372Z,5.20
2022-12-05T01:08:20.881Z,6.83
2022-12-05T01:11:09.010Z,6.53
2022-12-05T01:13:57.080Z,6.97
2022-12-05T01:16:46.065Z,6.60
2022-12-05T01:19:33.097Z,6.90
2022-12-05T01:22:19.305Z,5.87
2022-12-05T01:25:06.440Z,7.43
2022-12-05T01:27:52.603Z,6.03
2022-12-05T01:30:40.838Z,6.33
2022-12-05T01:33:27.493Z,5.93
2022-12-05T01:36:14.997Z,6.83
2022-12-05T01:39:01.685Z,5.83
2022-12-05T01:41:50.806Z,6.03
2022-12-05T01:44:37.168Z,7.50
2022-12-05T01:47:25.063Z,6.07
2022-12-05T01:50:13.319Z,6.13
2022-12-05T01:53:00.184Z,6.83
2022-12-05T01:55:48.841Z,7.17
2022-12-05T01:58:37.851Z,7.27
2022-12-05T02:01:24.749Z,6.87
2022-12-05T02:04:11.556Z,7.30
2022-12-05T02:06:57.821Z,6.33
2022-12-05T02:09:45.009Z,6.33
2022-12-05T02:12:31.661Z,7.67
2022-12-05T02:15:37.104Z,6.00
2022-12-05T02:18:56.962Z,7.00
2022-12-05T02:22:11.524Z,5.13
2022-12-05T02:25:17.259Z,5.90
2022-12-05T02:28:42.164Z,6.27
2022-12-05T02:31:45.900Z,6.23
2022-12-05T02:34:44.353Z,5.73
2022-12-05T02:37:55.384Z,5.67
2022-12-05T02:40:46.457Z,7.13
2022-12-05T02:43:40.207Z,6.60
2022-12-05T02:46:30.026Z,6.03
2022-12-05T02:49:22.560Z,4.87
2022-12-05T02:52:14.024Z,6.20
2022-12-05T02:55:02.795Z,5.60
2022-12-05T02:57:55.492Z,5.77
2022-12-05T03:00:45.510Z,6.03
2022-12-05T03:03:33.318Z,6.03
2022-12-05T03:06:51.485Z,5.00
2022-12-05T03:09:42.101Z,4.57
2022-12-05T03:12:38.522Z,4.67
2022-12-05T03:15:31.075Z,4.77
2022-12-05T03:18:34.520Z,5.00
2022-12-05T03:21:34.614Z,4.43
2022-12-05T03:24:21.679Z,5.33
2022-12-05T03:27:26.090Z,5.73
2022-12-05T03:30:16.330Z,5.10
2022-12-05T03:33:09.693Z,5.13
2022-12-05T03:36:06.747Z,6.63
2022-12-05T03:39:16.725Z,5.63
2022-12-05T03:42:34.936Z,5.80
2022-12-05T03:45:28.813Z,5.83
2022-12-05T03:48:24.201Z,6.10
2022-12-05T03:51:13.699Z,5.53
2022-12-05T03:54:05.826Z,5.20
2022-12-05T03:57:01.425Z,6.67
2022-12-05T04:00:12.085Z,4.77
2022-12-05T04:03:12.910Z,5.63
2022-12-05T04:06:02.149Z,7.23
2022-12-05T04:08:54.895Z,6.47
2022-12-05T04:11:48.341Z,5.30
2022-12-05T04:14:40.114Z,5.53
2022-12-05T04:18:02.999Z,5.30
2022-12-05T04:21:09.302Z,5.47
2022-12-05T04:24:19.239Z,5.33
2022-12-05T04:27:29.587Z,5.37
2022-12-05T04:30:19.751Z,5.50
2022-12-05T04:33:40.341Z,5.67
2022-12-05T04:36:26.507Z,5.00
2022-12-05T04:39:41.568Z,5.20
2022-12-05T04:42:31.316Z,4.70
2022-12-05T04:45:21.301Z,4.53
2022-12-05T04:48:14.138Z,6.43
2022-12-05T04:51:02.665Z,5.27
2022-12-05T04:53:54.949Z,5.10
2022-12-05T04:56:44.139Z,5.57
2022-12-05T04:59:30.722Z,6.67
2022-12-05T05:02:25.415Z,5.07
2022-12-05T05:05:15.941Z,5.47
2022-12-05T05:08:02.454Z,5.57
2022-12-05T05:10:57.498Z,5.43
2022-12-05T05:13:43.973Z,5.87
2022-12-05T05:16:33.474Z,6.67
2022-12-05T05:19:19.844Z,5.77
2022-12-05T05:22:06.208Z,5.87
2022-12-05T05:24:52.551Z,4.80
2022-12-05T05:27:39.173Z,6.17
2022-12-05T05:30:26.663Z,6.03
2022-12-05T05:33:12.879Z,5.10
2022-12-05T05:36:08.174Z,6.17
2022-12-05T05:38:59.484Z,6.47
2022-12-05T05:41:46.116Z,7.27
2022-12-05T05:44:32.530Z,5.93
2022-12-05T05:47:18.970Z,5.70
2022-12-05T05:50:06.379Z,6.20
2022-12-05T05:52:52.859Z,6.47
2022-12-05T05:55:40.879Z,6.80
2022-12-05T05:58:27.446Z,6.27
2022-12-05T06:01:16.678Z,5.97
2022-12-05T06:04:03.673Z,6.10
2022-12-05T06:06:50.072Z,6.47
2022-12-05T06:09:36.403Z,5.97
2022-12-05T06:12:22.948Z,7.90
2022-12-05T06:15:09.843Z,6.23
2022-12-05T06:17:56.788Z,6.60
2022-12-05T06:20:51.025Z,6.10
2022-12-05T06:23:39.068Z,6.17
2022-12-05T06:26:25.641Z,5.63
2022-12-05T06:29:11.920Z,6.57
2022-12-05T06:31:58.288Z,6.83
2022-12-05T06:34:44.897Z,6.30
2022-12-05T06:37:31.395Z,7.53
2022-12-05T06:40:17.817Z,6.50
2022-12-05T06:43:04.619Z,6.33
2022-12-05T06:45:51.486Z,7.50
2022-12-05T06:48:37.931Z,8.37
2022-12-05T06:51:24.743Z,7.20
2022-12-05T06:54:14.420Z,6.13
2022-12-05T06:57:00.615Z,5.80
2022-12-05T06:59:47.192Z,7.13
2022-12-05T07:02:33.998Z,6.07
2022-12-05T07:05:20.629Z,7.57
2022-12-05T07:08:07.102Z,7.13
2022-12-05T07:10:53.727Z,6.00
2022-12-05T07:13:42.047Z,5.83
2022-12-05T07:16:29.212Z,7.77
2022-12-05T07:19:15.742Z,6.70
2022-12-05T07:22:02.532Z,7.27
2022-12-05T07:24:51.660Z,7.77
2022-12-05T07:27:38.339Z,6.30
2022-12-05T07:30:25.142Z,7.73
2022-12-05T07:33:11.604Z,7.77
2022-12-05T07:36:09.052Z,6.70
2022-12-05T07:38:56.995Z,7.20
2022-12-05T07:41:43.273Z,6.30
2022-12-05T07:44:34.812Z,7.37
2022-12-05T07:47:21.432Z,6.17
2022-12-05T07:50:08.175Z,6.43
2022-12-05T07:52:55.929Z,8.10
2022-12-05T07:55:42.269Z,6.83
2022-12-05T07:58:29.650Z,7.30
2022-12-05T08:01:21.804Z,7.20
2022-12-05T08:04:13.556Z,6.50
2022-12-05T08:07:01.414Z,6.63
2022-12-05T08:09:48.327Z,7.43
2022-12-05T08:12:34.605Z,7.60
2022-12-05T08:15:20.787Z,7.67
2022-12-05T08:18:07.257Z,6.93
2022-12-05T08:20:53.608Z,6.80
2022-12-05T08:23:40.443Z,7.77
2022-12-05T08:26:30.351Z,7.17
2022-12-05T08:29:21.316Z,8.33
2022-12-05T08:32:07.896Z,6.27
2022-12-05T08:34:54.143Z,6.90
2022-12-05T08:37:40.776Z,7.00
2022-12-05T08:40:27.129Z,6.57
2022-12-05T08:43:13.922Z,6.90
2022-12-05T08:46:00.980Z,8.63
2022-12-05T08:48:47.328Z,6.10
2022-12-05T08:51:34.058Z,6.30
2022-12-05T08:54:20.455Z,8.23
2022-12-05T08:57:06.673Z,6.57
2022-12-05T08:59:53.130Z,7.43
2022-12-05T09:02:39.563Z,6.30
2022-12-05T09:05:28.787Z,7.30
2022-12-05T09:08:15.767Z,6.63
2022-12-05T09:11:10.769Z,6.97
2022-12-05T09:13:58.662Z,6.50
2022-12-05T09:16:47.132Z,6.90
2022-12-05T09:19:33.789Z,7.10
2022-12-05T09:22:20.224Z,6.37
2022-12-05T09:25:07.348Z,8.80
2022-12-05T09:27:54.792Z,8.93
2022-12-05T09:30:41.311Z,7.23
2022-12-05T09:33:29.570Z,6.50
2022-12-05T09:36:27.924Z,6.90
2022-12-05T09:39:14.417Z,7.23
2022-12-05T09:42:19.520Z,5.90
2022-12-05T09:45:14.371Z,6.53
2022-12-05T09:48:14.095Z,6.27
2022-12-05T09:51:02.336Z,7.33
2022-12-05T09:53:49.080Z,5.67
2022-12-05T09:56:35.539Z,7.50
2022-12-05T09:59:21.902Z,6.07
2022-12-05T10:02:29.380Z,6.20
2022-12-05T10:05:35.532Z,5.67
2022-12-05T10:08:46.243Z,5.90
2022-12-05T10:11:36.123Z,6.30
2022-12-05T10:14:48.544Z,5.47
2022-12-05T10:17:43.843Z,5.87
2022-12-05T10:20:48.735Z,5.77
2022-12-05T10:23:59.821Z,6.70
2022-12-05T10:26:55.113Z,5.90
2022-12-05T10:29:50.891Z,7.00
2022-12-05T10:32:48.223Z,6.00
2022-12-05T10:35:37.423Z,6.07
2022-12-05T10:38:28.762Z,6.23
2022-12-05T10:41:15.356Z,6.37
2022-12-05T10:44:01.668Z,6.00
2022-12-05T10:46:48.687Z,5.20
2022-12-05T10:49:37.386Z,6.30
2022-12-05T10:52:24.213Z,6.03
2022-12-05T10:55:16.960Z,5.60
2022-12-05T10:58:17.613Z,5.30
2022-12-05T11:01:10.086Z,12.30
2022-12-05T11:03:59.982Z,47.47
2022-12-05T11:07:24.801Z,20.77
2022-12-05T11:10:34.295Z,6.83
2022-12-05T11:13:26.140Z,5.77
2022-12-05T11:16:24.068Z,6.30
2022-12-05T11:19:22.497Z,7.63
2022-12-05T11:22:17.540Z,6.73
2022-12-05T11:25:25.250Z,8.33
2022-12-05T11:28:17.823Z,7.23
2022-12-05T11:31:18.768Z,9.70
2022-12-05T11:34:17.695Z,8.53
2022-12-05T11:37:15.551Z,5.87
2022-12-05T11:40:03.125Z,6.33
2022-12-05T11:43:16.954Z,7.50
2022-12-05T11:46:26.492Z,12.93
2022-12-05T11:50:06.607Z,7.20
2022-12-05T11:53:12.172Z,7.00
2022-12-05T11:56:21.087Z,6.37
2022-12-05T11:59:31.611Z,5.97
2022-12-05T12:02:36.493Z,6.23
2022-12-05T12:05:43.388Z,5.53
2022-12-05T12:08:35.508Z,7.13
2022-12-05T12:11:38.811Z,5.13
2022-12-05T12:14:28.316Z,5.27
2022-12-05T12:17:29.329Z,5.53
2022-12-05T12:20:35.524Z,5.57
2022-12-05T12:23:21.860Z,5.43
2022-12-05T12:26:11.924Z,6.73
2022-12-05T12:29:36.973Z,5.40
2022-12-05T12:32:42.211Z,5.63
2022-12-05T12:35:37.701Z,6.00
2022-12-05T12:38:32.971Z,4.93
2022-12-05T12:41:50.537Z,4.83
2022-12-05T12:44:57.347Z,6.70
2022-12-05T12:48:06.624Z,5.17
2022-12-05T12:50:54.725Z,6.13
2022-12-05T12:53:46.209Z,4.77
2022-12-05T12:56:45.557Z,6.00
2022-12-05T13:00:17.076Z,5.07
2022-12-05T13:03:12.114Z,5.60
2022-12-05T13:05:58.523Z,5.13
2022-12-05T13:08:55.544Z,6.30
2022-12-05T13:11:45.591Z,5.77
2022-12-05T13:14:34.760Z,5.30
2022-12-05T13:17:23.325Z,5.63
2022-12-05T13:20:27.000Z,4.70
2022-12-05T13:23:17.983Z,5.07
2022-12-05T13:26:09.446Z,6.37
2022-12-05T13:28:59.508Z,6.33
2022-12-05T13:31:48.121Z,5.20
2022-12-05T13:34:48.729Z,5.33
2022-12-05T13:37:54.455Z,6.07
2022-12-05T13:41:12.096Z,6.10
2022-12-05T13:44:06.252Z,6.93
2022-12-05T13:46:53.229Z,11.80
2022-12-05T13:49:52.925Z,5.13
2022-12-05T13:52:53.213Z,6.97
2022-12-05T13:56:14.074Z,7.77
2022-12-05T13:59:00.343Z,6.40
2022-12-05T14:01:54.086Z,7.00
2022-12-05T14:04:53.728Z,5.90
2022-12-05T14:07:48.402Z,6.57
2022-12-05T14:10:34.980Z,21.07
2022-12-05T14:13:21.454Z,13.07
2022-12-05T14:16:30.793Z,7.43
2022-12-05T14:19:37.749Z,6.17
2022-12-05T14:22:31.712Z,6.00
2022-12-05T14:25:44.402Z,6.83
2022-12-05T14:28:55.799Z,5.87
2022-12-05T14:32:10.023Z,6.37
2022-12-05T14:35:15.943Z,6.43
2022-12-05T14:38:05.716Z,5.87
2022-12-05T14:40:52.437Z,6.57
2022-12-05T14:43:39.420Z,6.73
2022-12-05T14:46:30.644Z,7.17
2022-12-05T14:49:52.735Z,7.20
2022-12-05T14:52:41.080Z,5.97
2022-12-05T14:55:30.299Z,6.90
2022-12-05T14:58:20.972Z,7.73
2022-12-05T15:01:15.509Z,7.37
2022-12-05T15:04:24.037Z,7.13
2022-12-05T15:07:24.966Z,5.97
2022-12-05T15:10:11.308Z,24.00
2022-12-05T15:13:05.228Z,14.47
2022-12-05T15:15:57.886Z,7.60
2022-12-05T15:18:49.120Z,6.07
2022-12-05T15:21:44.816Z,6.40
2022-12-05T15:24:38.590Z,5.33
2022-12-05T15:27:25.224Z,5.97
2022-12-05T15:30:17.140Z,5.67
2022-12-05T15:33:03.589Z,6.00
2022-12-05T15:35:52.868Z,5.90
2022-12-05T15:38:39.559Z,5.77
2022-12-05T15:41:27.635Z,7.07
2022-12-05T15:44:13.877Z,6.23
2022-12-05T15:47:00.409Z,5.70
2022-12-05T15:49:47.073Z,6.90
2022-12-05T15:52:43.858Z,7.40
2022-12-05T15:55:38.886Z,7.80
2022-12-05T15:58:33.431Z,7.60
2022-12-05T16:01:24.807Z,8.87
2022-12-05T16:04:22.604Z,7.57
2022-12-05T16:07:14.877Z,11.07
2022-12-05T16:10:02.564Z,7.00
2022-12-05T16:12:51.228Z,7.73
2022-12-05T16:15:37.788Z,7.63
2022-12-05T16:18:30.619Z,7.17
2022-12-05T16:21:38.765Z,8.93
2022-12-05T16:24:32.959Z,9.77
2022-12-05T16:27:29.926Z,9.73
2022-12-05T16:30:16.547Z,8.33
2022-12-05T16:33:08.077Z,9.27
2022-12-05T16:35:54.449Z,9.23
2022-12-05T16:38:43.088Z,9.13
2022-12-05T16:41:38.916Z,10.93
2022-12-05T16:44:28.283Z,9.80
2022-12-05T16:47:27.132Z,7.13
2022-12-05T16:50:29.893Z,7.77
2022-12-05T16:53:31.737Z,8.30
2022-12-05T16:56:29.663Z,8.10
2022-12-05T16:59:23.335Z,7.60
2022-12-05T17:02:15.288Z,10.13
2022-12-05T17:05:06.780Z,8.63
2022-12-05T17:07:53.227Z,9.30
2022-12-05T17:10:39.668Z,7.87
2022-12-05T17:13:26.012Z,9.73
2022-12-05T17:16:12.613Z,7.17
2022-12-05T17:18:58.956Z,7.47
2022-12-05T17:21:45.419Z,8.20
2022-12-05T17:24:31.982Z,6.43
2022-12-05T17:27:18.426Z,7.30
2022-12-05T17:30:05.425Z,8.33
2022-12-05T17:32:51.619Z,9.97
2022-12-05T17:35:38.123Z,12.17
2022-12-05T17:38:24.403Z,13.80
2022-12-05T17:41:19.021Z,13.37
2022-12-05T17:44:05.693Z,12.77
2022-12-05T17:46:51.934Z,12.30
2022-12-05T17:49:38.440Z,12.00
2022-12-05T17:52:24.959Z,12.07
2022-12-05T17:55:24.093Z,11.43
2022-12-05T17:58:10.885Z,13.43
2022-12-05T18:00:57.623Z,14.83
2022-12-05T18:03:44.247Z,14.13
2022-12-05T18:06:30.529Z,13.23
2022-12-05T18:09:16.833Z,15.13
2022-12-05T18:12:03.264Z,13.23
2022-12-05T18:14:49.338Z,15.30
2022-12-05T18:17:35.982Z,12.97
2022-12-05T18:20:22.447Z,12.20
2022-12-05T18:23:08.873Z,12.23
2022-12-05T18:25:59.915Z,12.27
2022-12-05T18:28:46.992Z,12.03
2022-12-05T18:31:33.527Z,10.23
2022-12-05T18:34:20.097Z,11.03
2022-12-05T18:37:06.410Z,9.20
2022-12-05T18:39:52.678Z,9.50
2022-12-05T18:42:39.253Z,9.13
2022-12-05T18:45:25.915Z,9.53
2022-12-05T18:51:23.681Z,8.87
2022-12-05T18:54:10.363Z,7.10
2022-12-05T18:56:58.355Z,8.10
2022-12-05T18:59:44.914Z,9.13
2022-12-05T19:02:31.802Z,8.80
2022-12-05T19:05:18.243Z,9.43
2022-12-05T19:08:05.017Z,16.43
2022-12-05T19:10:51.255Z,11.00
2022-12-05T19:13:37.828Z,10.67
2022-12-05T19:16:25.501Z,11.33
2022-12-05T19:19:14.126Z,10.20
2022-12-05T19:22:00.951Z,11.00
2022-12-05T19:24:47.417Z,10.13
2022-12-05T19:27:33.671Z,11.07
2022-12-05T19:30:19.883Z,10.47
2022-12-05T19:33:06.162Z,9.50
2022-12-05T19:35:52.405Z,12.47
2022-12-05T19:38:40.220Z,15.50
2022-12-05T19:41:29.546Z,16.70
2022-12-05T19:44:16.019Z,15.47
2022-12-05T19:47:02.492Z,14.93
2022-12-05T19:49:48.847Z,12.83
2022-12-05T19:52:35.120Z,11.90
2022-12-05T19:55:21.710Z,13.07
2022-12-05T19:58:08.247Z,12.67
2022-12-05T20:00:54.660Z,13.63
2022-12-05T20:03:41.990Z,12.67
2022-12-05T20:06:36.188Z,11.77
2022-12-05T20:09:22.843Z,13.50
2022-12-05T20:12:09.128Z,12.27
2022-12-05T20:14:57.501Z,12.73
2022-12-05T20:17:44.056Z,12.23
2022-12-05T20:20:32.316Z,10.10
2022-12-05T20:23:18.653Z,12.07
2022-12-05T20:26:08.537Z,10.40
2022-12-05T20:28:58.111Z,13.37
2022-12-05T20:31:44.647Z,10.23
2022-12-05T20:34:31.157Z,12.33
2022-12-05T20:37:17.576Z,10.97
2022-12-05T20:40:04.464Z,10.77
2022-12-05T20:42:51.018Z,10.50
2022-12-05T20:45:37.282Z,12.07
2022-12-05T20:48:26.099Z,12.27
2022-12-05T20:51:15.114Z,12.27
2022-12-05T20:54:03.382Z,11.93
2022-12-05T20:56:49.680Z,12.37
2022-12-05T20:59:36.111Z,11.97
2022-12-05T21:02:23.034Z,12.07
2022-12-05T21:05:09.951Z,12.43
2022-12-05T21:07:56.813Z,13.33
2022-12-05T21:10:45.486Z,10.27
2022-12-05T21:13:31.800Z,14.23
2022-12-05T21:16:20.933Z,10.83
2022-12-05T21:19:08.706Z,12.17
2022-12-05T21:21:55.884Z,11.53
2022-12-05T21:24:42.470Z,12.03
2022-12-05T21:27:31.015Z,12.87
2022-12-05T21:30:17.940Z,11.13
2022-12-05T21:33:05.434Z,12.40
2022-12-05T21:35:55.101Z,13.57
2022-12-05T21:38:41.719Z,14.80
2022-12-05T21:41:28.487Z,15.57
2022-12-05T21:44:14.946Z,14.67
2022-12-05T21:47:01.624Z,12.73
2022-12-05T21:49:47.934Z,10.40
2022-12-05T21:52:41.233Z,9.03
2022-12-05T21:55:27.705Z,10.43
2022-12-05T21:58:14.623Z,8.67
2022-12-05T22:01:01.175Z,11.80
2022-12-05T22:03:47.421Z,8.80
2022-12-05T22:06:34.983Z,9.90
2022-12-05T22:09:21.547Z,8.43
2022-12-05T22:12:08.230Z,7.87
2022-12-05T22:14:54.718Z,6.97
2022-12-05T22:17:41.089Z,7.23
2022-12-05T22:20:27.352Z,8.10
2022-12-05T22:23:16.745Z,8.33
2022-12-05T22:26:17.994Z,9.50
2022-12-05T22:29:04.463Z,9.03
2022-12-05T22:31:50.568Z,7.20
2022-12-05T22:34:37.157Z,7.20
2022-12-05T22:37:23.856Z,7.53
2022-12-05T22:40:10.539Z,8.57
2022-12-05T22:42:57.035Z,9.17
2022-12-05T22:45:43.464Z,9.73
2022-12-05T22:48:30.152Z,9.73
2022-12-05T22:51:18.151Z,7.93
2022-12-05T22:54:04.989Z,8.10
2022-12-05T22:56:51.027Z,11.63
2022-12-05T22:59:37.488Z,9.97
2022-12-05T23:02:24.167Z,10.37
2022-12-05T23:05:10.616Z,9.50
2022-12-05T23:07:56.732Z,9.07
2022-12-05T23:10:43.103Z,9.93
2022-12-05T23:13:31.563Z,8.00
2022-12-05T23:16:25.442Z,6.90
2022-12-05T23:19:11.718Z,7.53
2022-12-05T23:21:58.156Z,8.37
2022-12-05T23:24:44.405Z,7.83
2022-12-05T23:27:30.964Z,7.43
2022-12-05T23:30:17.716Z,6.83
2022-12-05T23:33:04.252Z,7.10
2022-12-05T23:35:54.026Z,6.20
2022-12-05T23:38:42.074Z,6.77
2022-12-05T23:41:28.675Z,6.10
2022-12-05T23:44:14.966Z,6.53
2022-12-05T23:47:01.318Z,6.20
2022-12-05T23:49:47.904Z,5.93
2022-12-05T23:52:36.050Z,5.77
2022-12-05T23:55:22.338Z,7.00
2022-12-05T23:58:08.400Z,6.70
